createdAt,value
2022-11-06T00:00:47.222Z,99898.00
2022-11-06T00:03:15.338Z,99893.00
2022-11-06T00:06:01.836Z,99884.00
2022-11-06T00:08:36.785Z,99903.00
2022-11-06T00:11:11.313Z,99901.00
2022-11-06T00:13:40.507Z,99909.00
2022-11-06T00:16:11.718Z,99910.00
2022-11-06T00:18:41.470Z,99907.00
2022-11-06T00:21:11.497Z,99914.00
2022-11-06T00:23:41.914Z,99902.00
2022-11-06T00:26:12.217Z,99909.00
2022-11-06T00:28:40.756Z,99902.00
2022-11-06T00:31:11.778Z,99894.00
2022-11-06T00:33:40.708Z,99903.00
2022-11-06T00:36:13.638Z,99905.00
2022-11-06T00:38:43.157Z,99891.00
2022-11-06T00:41:15.631Z,99895.00
2022-11-06T00:43:44.233Z,99905.00
2022-11-06T00:46:14.636Z,99893.00
2022-11-06T00:48:43.358Z,99896.00
2022-11-06T00:51:14.153Z,99904.00
2022-11-06T00:53:44.828Z,99899.00
2022-11-06T00:56:15.591Z,99892.00
2022-11-06T00:58:44.801Z,99896.00
2022-11-06T01:01:17.770Z,99896.00
2022-11-06T01:03:48.849Z,99900.00
2022-11-06T01:06:19.191Z,99901.00
2022-11-06T01:08:50.169Z,99893.00
2022-11-06T01:11:22.487Z,99907.00
2022-11-06T01:13:54.078Z,99892.00
2022-11-06T01:16:24.017Z,99896.00
2022-11-06T01:18:53.913Z,99894.00
2022-11-06T01:21:25.562Z,99896.00
2022-11-06T01:23:57.970Z,99889.00
2022-11-06T01:26:37.725Z,99902.00
2022-11-06T01:29:12.782Z,99886.00
2022-11-06T01:31:41.784Z,99887.00
2022-11-06T01:34:10.296Z,99877.00
2022-11-06T01:36:39.260Z,99875.00
2022-11-06T01:39:13.064Z,99870.00
2022-11-06T01:41:44.422Z,99873.00
2022-11-06T01:45:16.512Z,99865.00
2022-11-06T01:47:45.497Z,99860.00
2022-11-06T01:50:16.108Z,99868.00
2022-11-06T01:52:45.971Z,99855.00
2022-11-06T01:55:22.150Z,99860.00
2022-11-06T01:57:51.594Z,99865.00
2022-11-06T02:00:20.983Z,99861.00
2022-11-06T02:02:50.198Z,99864.00
2022-11-06T02:05:18.578Z,99857.00
2022-11-06T02:07:47.220Z,99860.00
2022-11-06T02:10:16.958Z,99853.00
2022-11-06T02:12:55.685Z,99847.00
2022-11-06T02:15:36.112Z,99853.00
2022-11-06T02:18:23.719Z,99841.00
2022-11-06T02:21:21.345Z,99844.00
2022-11-06T02:24:17.757Z,99843.00
2022-11-06T02:27:11.401Z,99850.00
2022-11-06T02:29:52.033Z,99846.00
2022-11-06T02:32:28.836Z,99847.00
2022-11-06T02:35:01.687Z,99851.00
2022-11-06T02:37:35.258Z,99819.00
2022-11-06T02:40:10.637Z,99847.00
2022-11-06T02:42:45.555Z,99838.00
2022-11-06T02:45:18.484Z,99838.00
2022-11-06T02:47:54.373Z,99837.00
2022-11-06T02:50:27.809Z,99833.00
2022-11-06T02:52:59.977Z,99843.00
2022-11-06T02:55:35.202Z,99840.00
2022-11-06T02:58:10.367Z,99832.00
2022-11-06T03:00:42.908Z,99835.00
2022-11-06T03:03:21.323Z,99823.00
2022-11-06T03:05:57.634Z,99830.00
2022-11-06T03:08:35.541Z,99829.00
2022-11-06T03:11:16.808Z,99777.00
2022-11-06T03:13:54.059Z,99833.00
2022-11-06T03:16:38.999Z,99834.00
2022-11-06T03:19:16.854Z,99831.00
2022-11-06T03:21:58.353Z,99837.00
2022-11-06T03:24:35.699Z,99827.00
2022-11-06T03:27:13.273Z,99821.00
2022-11-06T03:29:48.712Z,99830.00
2022-11-06T03:32:24.542Z,99827.00
2022-11-06T03:34:58.823Z,99824.00
2022-11-06T03:37:35.706Z,99822.00
2022-11-06T03:40:12.955Z,99823.00
2022-11-06T03:42:44.027Z,99826.00
2022-11-06T03:45:19.687Z,99783.00
2022-11-06T03:47:56.582Z,99817.00
2022-11-06T03:50:31.707Z,99799.00
2022-11-06T03:53:09.237Z,99810.00
2022-11-06T03:55:45.966Z,99811.00
2022-11-06T03:58:20.389Z,99813.00
2022-11-06T04:00:54.057Z,99826.00
2022-11-06T04:03:31.165Z,99807.00
2022-11-06T04:06:09.136Z,99819.00
2022-11-06T04:09:05.160Z,99824.00
2022-11-06T04:11:55.312Z,99806.00
2022-11-06T04:14:28.652Z,99822.00
2022-11-06T04:17:04.643Z,99826.00
2022-11-06T04:19:32.718Z,99827.00
2022-11-06T04:22:23.875Z,99822.00
2022-11-06T04:25:29.326Z,99825.00
2022-11-06T04:28:16.537Z,99808.00
2022-11-06T04:30:57.796Z,99810.00
2022-11-06T04:33:37.846Z,99817.00
2022-11-06T04:36:19.418Z,99811.00
2022-11-06T04:39:00.616Z,99800.00
2022-11-06T04:41:37.502Z,99821.00
2022-11-06T04:44:15.066Z,99809.00
2022-11-06T04:46:50.556Z,99804.00
2022-11-06T04:49:22.100Z,99795.00
2022-11-06T04:51:50.829Z,99801.00
2022-11-06T04:54:19.776Z,99795.00
2022-11-06T04:56:47.992Z,99795.00
2022-11-06T04:59:18.773Z,99795.00
2022-11-06T05:01:47.543Z,99782.00
2022-11-06T05:04:15.842Z,99792.00
2022-11-06T05:06:45.333Z,99787.00
2022-11-06T05:09:13.446Z,99785.00
2022-11-06T05:11:41.496Z,99774.00
2022-11-06T05:14:09.609Z,99780.00
2022-11-06T05:16:37.692Z,99784.00
2022-11-06T05:19:05.994Z,99781.00
2022-11-06T05:21:51.948Z,99777.00
2022-11-06T05:24:21.370Z,99770.00
2022-11-06T05:26:52.253Z,99774.00
2022-11-06T05:29:22.725Z,99771.00
2022-11-06T05:31:50.730Z,99775.00
2022-11-06T05:34:18.837Z,99770.00
2022-11-06T05:36:47.108Z,99770.00
2022-11-06T05:39:15.207Z,99774.00
2022-11-06T05:41:44.605Z,99763.00
2022-11-06T05:44:12.682Z,99766.00
2022-11-06T05:46:48.686Z,99767.00
2022-11-06T05:49:18.128Z,99765.00
2022-11-06T05:51:46.217Z,99757.00
2022-11-06T05:54:14.276Z,99765.00
2022-11-06T05:56:42.295Z,99711.00
2022-11-06T05:59:12.103Z,99760.00
2022-11-06T06:01:40.300Z,99761.00
2022-11-06T06:04:08.539Z,99759.00
2022-11-06T06:06:37.389Z,99762.00
2022-11-06T06:09:05.782Z,99757.00
2022-11-06T06:11:33.833Z,99779.00
2022-11-06T06:14:01.972Z,99760.00
2022-11-06T06:16:31.772Z,99756.00
2022-11-06T06:18:59.841Z,99763.00
2022-11-06T06:21:27.939Z,99714.00
2022-11-06T06:23:56.020Z,99776.00
2022-11-06T06:26:24.059Z,99781.00
2022-11-06T06:28:52.072Z,99775.00
2022-11-06T06:31:20.128Z,99778.00
2022-11-06T06:33:49.537Z,99782.00
2022-11-06T06:36:17.878Z,99784.00
2022-11-06T06:38:46.040Z,99781.00
2022-11-06T06:41:14.493Z,99781.00
2022-11-06T06:43:42.543Z,99789.00
2022-11-06T06:46:11.120Z,99797.00
2022-11-06T06:48:39.166Z,99798.00
2022-11-06T06:51:08.790Z,99801.00
2022-11-06T06:53:37.729Z,99776.00
2022-11-06T06:56:06.715Z,99797.00
2022-11-06T06:58:35.274Z,99801.00
2022-11-06T07:01:05.237Z,99818.00
2022-11-06T07:03:33.892Z,99822.00
2022-11-06T07:06:01.987Z,99817.00
2022-11-06T07:08:31.649Z,99811.00
2022-11-06T07:11:01.469Z,99809.00
2022-11-06T07:13:35.491Z,99811.00
2022-11-06T07:16:05.027Z,99804.00
2022-11-06T07:18:33.166Z,99804.00
2022-11-06T07:21:01.667Z,99798.00
2022-11-06T07:23:31.059Z,99800.00
2022-11-06T07:25:59.069Z,99790.00
2022-11-06T07:28:27.457Z,99795.00
2022-11-06T07:31:00.552Z,99806.00
2022-11-06T07:33:29.027Z,99813.00
2022-11-06T07:35:57.137Z,99818.00
2022-11-06T07:38:25.212Z,99804.00
2022-11-06T07:40:54.573Z,99810.00
2022-11-06T07:43:24.729Z,99799.00
2022-11-06T07:45:52.768Z,99800.00
2022-11-06T07:48:20.810Z,99802.00
2022-11-06T07:50:48.859Z,99812.00
2022-11-06T07:53:17.007Z,99813.00
2022-11-06T07:55:50.179Z,99818.00
2022-11-06T07:58:20.972Z,99801.00
2022-11-06T08:00:49.761Z,99802.00
2022-11-06T08:03:18.301Z,99799.00
2022-11-06T08:05:46.583Z,99809.00
2022-11-06T08:08:15.736Z,99804.00
2022-11-06T08:10:44.580Z,99797.00
2022-11-06T08:13:16.942Z,99790.00
2022-11-06T08:15:46.692Z,99796.00
2022-11-06T08:18:15.036Z,99794.00
2022-11-06T08:20:43.945Z,99739.00
2022-11-06T08:23:14.028Z,99791.00
2022-11-06T08:25:42.289Z,99796.00
2022-11-06T08:28:11.732Z,99787.00
2022-11-06T08:30:40.113Z,99797.00
2022-11-06T08:33:09.930Z,99792.00
2022-11-06T08:35:38.817Z,99791.00
2022-11-06T08:38:06.872Z,99784.00
2022-11-06T08:40:37.754Z,99785.00
2022-11-06T08:43:08.357Z,99773.00
2022-11-06T08:45:39.447Z,99778.00
2022-11-06T08:48:10.375Z,99771.00
2022-11-06T08:50:41.377Z,99764.00
2022-11-06T08:53:09.694Z,99752.00
2022-11-06T08:55:40.177Z,99754.00
2022-11-06T08:58:09.440Z,99752.00
2022-11-06T09:00:37.865Z,99750.00
2022-11-06T09:03:12.181Z,99746.00
2022-11-06T09:05:42.030Z,99735.00
2022-11-06T09:08:11.656Z,99761.00
2022-11-06T09:10:42.043Z,99754.00
2022-11-06T09:13:11.044Z,99756.00
2022-11-06T09:15:41.497Z,99747.00
2022-11-06T09:18:12.585Z,99739.00
2022-11-06T09:20:40.734Z,99733.00
2022-11-06T09:23:10.804Z,99746.00
2022-11-06T09:25:39.259Z,99735.00
2022-11-06T09:28:07.380Z,99737.00
2022-11-06T09:30:35.549Z,99741.00
2022-11-06T09:33:07.052Z,99748.00
2022-11-06T09:35:40.185Z,99721.00
2022-11-06T09:38:12.216Z,99729.00
2022-11-06T09:40:49.618Z,99723.00
2022-11-06T09:44:04.058Z,99716.00
2022-11-06T09:46:38.908Z,99672.00
2022-11-06T09:49:19.405Z,99706.00
2022-11-06T09:51:57.994Z,99720.00
2022-11-06T09:54:31.300Z,99709.00
2022-11-06T09:57:07.414Z,99704.00
2022-11-06T09:59:41.351Z,99699.00
2022-11-06T10:02:29.006Z,99701.00
2022-11-06T10:05:06.583Z,99706.00
2022-11-06T10:07:40.448Z,99697.00
2022-11-06T10:10:17.676Z,99700.00
2022-11-06T10:13:07.285Z,99704.00
2022-11-06T10:15:43.638Z,99683.00
2022-11-06T10:18:25.890Z,99681.00
2022-11-06T10:20:58.287Z,99683.00
2022-11-06T10:23:43.889Z,99684.00
2022-11-06T10:26:18.089Z,99677.00
2022-11-06T10:29:31.977Z,99680.00
2022-11-06T10:32:22.077Z,99671.00
2022-11-06T10:34:55.523Z,99670.00
2022-11-06T10:37:28.083Z,99665.00
2022-11-06T10:39:59.565Z,99661.00
2022-11-06T10:42:38.479Z,99659.00
2022-11-06T10:45:14.679Z,99647.00
2022-11-06T10:47:50.989Z,99647.00
2022-11-06T10:50:20.024Z,99647.00
2022-11-06T10:52:56.981Z,99652.00
2022-11-06T10:55:59.383Z,99645.00
2022-11-06T10:58:31.543Z,99640.00
2022-11-06T11:01:03.240Z,99633.00
2022-11-06T11:03:35.460Z,99631.00
2022-11-06T11:06:05.013Z,99627.00
2022-11-06T11:08:42.267Z,99618.00
2022-11-06T11:11:26.996Z,99609.00
2022-11-06T11:14:23.759Z,99609.00
2022-11-06T11:16:52.499Z,99596.00
2022-11-06T11:19:34.360Z,99593.00
2022-11-06T11:22:05.210Z,99598.00
2022-11-06T11:24:33.850Z,99543.00
2022-11-06T11:27:06.424Z,99591.00
2022-11-06T11:29:44.752Z,99581.00
2022-11-06T11:32:18.380Z,99591.00
2022-11-06T11:34:56.456Z,99587.00
2022-11-06T11:37:29.133Z,99570.00
2022-11-06T11:40:21.985Z,99567.00
2022-11-06T11:42:51.653Z,99567.00
2022-11-06T11:45:22.776Z,99571.00
2022-11-06T11:47:52.516Z,99557.00
2022-11-06T11:50:30.163Z,99570.00
2022-11-06T11:53:10.432Z,99552.00
2022-11-06T11:55:44.589Z,99548.00
2022-11-06T11:58:22.970Z,99546.00
2022-11-06T12:00:58.949Z,99543.00
2022-11-06T12:03:35.871Z,99534.00
2022-11-06T12:06:11.150Z,99551.00
2022-11-06T12:08:42.261Z,99521.00
2022-11-06T12:11:17.045Z,99528.00
2022-11-06T12:13:46.576Z,99535.00
2022-11-06T12:16:20.059Z,99533.00
2022-11-06T12:18:58.544Z,99524.00
2022-11-06T12:21:33.152Z,99481.00
2022-11-06T12:24:08.562Z,99515.00
2022-11-06T12:26:45.499Z,99504.00
2022-11-06T12:29:18.480Z,99496.00
2022-11-06T12:31:54.552Z,99493.00
2022-11-06T12:34:34.169Z,99485.00
2022-11-06T12:37:21.045Z,99488.00
2022-11-06T12:40:01.823Z,99472.00
2022-11-06T12:42:35.135Z,99483.00
2022-11-06T12:45:12.088Z,99476.00
2022-11-06T12:47:52.148Z,99477.00
2022-11-06T12:50:34.666Z,99469.00
2022-11-06T12:53:39.144Z,99469.00
2022-11-06T12:56:18.155Z,99462.00
2022-11-06T12:59:10.405Z,99463.00
2022-11-06T13:01:53.368Z,99463.00
2022-11-06T13:04:35.288Z,99472.00
2022-11-06T13:07:35.181Z,99463.00
2022-11-06T13:10:45.069Z,99468.00
2022-11-06T13:13:36.077Z,99462.00
2022-11-06T13:16:17.292Z,99461.00
2022-11-06T13:18:53.778Z,99451.00
2022-11-06T13:21:34.425Z,99456.00
2022-11-06T13:24:11.467Z,99452.00
2022-11-06T13:26:47.492Z,99404.00
2022-11-06T13:29:19.252Z,99441.00
2022-11-06T13:31:55.887Z,99439.00
2022-11-06T13:34:30.308Z,99437.00
2022-11-06T13:36:59.779Z,99427.00
2022-11-06T13:39:34.657Z,99417.00
2022-11-06T13:42:06.328Z,99415.00
2022-11-06T13:44:35.053Z,99412.00
2022-11-06T13:47:13.638Z,99412.00
2022-11-06T13:50:02.155Z,99408.00
2022-11-06T13:52:41.095Z,99401.00
2022-11-06T13:55:22.299Z,99396.00
2022-11-06T13:58:31.178Z,99391.00
2022-11-06T14:01:14.550Z,99392.00
2022-11-06T14:04:16.284Z,99394.00
2022-11-06T14:06:47.399Z,99391.00
2022-11-06T14:09:21.817Z,99381.00
2022-11-06T14:11:56.075Z,99386.00
2022-11-06T14:14:28.299Z,99373.00
2022-11-06T14:17:15.030Z,99364.00
2022-11-06T14:20:00.888Z,99364.00
2022-11-06T14:22:32.872Z,99365.00
2022-11-06T14:25:02.471Z,99352.00
2022-11-06T14:28:07.087Z,99343.00
2022-11-06T14:31:11.113Z,99340.00
2022-11-06T14:34:02.132Z,99340.00
2022-11-06T14:36:37.269Z,99343.00
2022-11-06T14:39:14.375Z,99343.00
2022-11-06T14:41:59.468Z,99340.00
2022-11-06T14:44:49.348Z,99336.00
2022-11-06T14:47:33.355Z,99328.00
2022-11-06T14:50:08.250Z,99333.00
2022-11-06T14:52:48.250Z,99324.00
2022-11-06T14:55:31.152Z,99322.00
2022-11-06T14:58:15.210Z,99318.00
2022-11-06T15:00:54.194Z,99309.00
2022-11-06T15:03:31.460Z,99317.00
2022-11-06T15:06:07.778Z,99321.00
2022-11-06T15:08:57.389Z,99330.00
2022-11-06T15:12:07.230Z,99326.00
2022-11-06T15:14:57.688Z,99326.00
2022-11-06T15:17:29.735Z,99327.00
2022-11-06T15:20:23.427Z,99322.00
2022-11-06T15:23:20.400Z,99316.00
2022-11-06T15:26:04.538Z,99321.00
2022-11-06T15:28:43.529Z,99316.00
2022-11-06T15:31:17.496Z,99318.00
2022-11-06T15:34:00.580Z,99320.00
2022-11-06T15:36:33.540Z,99330.00
2022-11-06T15:39:02.176Z,99298.00
2022-11-06T15:41:30.737Z,99317.00
2022-11-06T15:44:00.413Z,99319.00
2022-11-06T15:46:30.362Z,99327.00
2022-11-06T15:49:16.141Z,99317.00
2022-11-06T15:51:54.740Z,99289.00
2022-11-06T15:54:39.074Z,99316.00
2022-11-06T15:57:17.886Z,99312.00
2022-11-06T15:59:47.524Z,99298.00
2022-11-06T16:02:19.719Z,99294.00
2022-11-06T16:04:49.530Z,99298.00
2022-11-06T16:07:20.231Z,99305.00
2022-11-06T16:09:51.522Z,99266.00
2022-11-06T16:12:20.291Z,99298.00
2022-11-06T16:14:49.985Z,99300.00
2022-11-06T16:17:25.086Z,99304.00
2022-11-06T16:19:57.134Z,99308.00
2022-11-06T16:22:31.982Z,99320.00
2022-11-06T16:25:04.622Z,99309.00
2022-11-06T16:27:40.204Z,99304.00
2022-11-06T16:30:25.258Z,99295.00
2022-11-06T16:32:54.210Z,99292.00
2022-11-06T16:35:34.482Z,99288.00
2022-11-06T16:38:42.300Z,99290.00
2022-11-06T16:41:13.185Z,99295.00
2022-11-06T16:43:41.584Z,99287.00
2022-11-06T16:46:10.945Z,99282.00
2022-11-06T16:48:41.561Z,99283.00
2022-11-06T16:51:14.003Z,99273.00
2022-11-06T16:53:56.682Z,99281.00
2022-11-06T16:56:28.567Z,99282.00
2022-11-06T16:59:06.628Z,99278.00
2022-11-06T17:01:42.217Z,99264.00
2022-11-06T17:04:21.831Z,99275.00
2022-11-06T17:06:51.985Z,99280.00
2022-11-06T17:09:31.850Z,99281.00
2022-11-06T17:12:02.143Z,99277.00
2022-11-06T17:14:30.561Z,99276.00
2022-11-06T17:17:02.689Z,99279.00
2022-11-06T17:19:31.979Z,99274.00
2022-11-06T17:22:00.028Z,99277.00
2022-11-06T17:24:36.984Z,99268.00
2022-11-06T17:27:06.755Z,99272.00
2022-11-06T17:29:36.184Z,99266.00
2022-11-06T17:32:06.344Z,99266.00
2022-11-06T17:34:34.537Z,99263.00
2022-11-06T17:37:02.877Z,99262.00
2022-11-06T17:39:32.737Z,99241.00
2022-11-06T17:42:00.741Z,99273.00
2022-11-06T17:44:28.917Z,99260.00
2022-11-06T17:46:56.960Z,99261.00
2022-11-06T17:49:26.353Z,99274.00
2022-11-06T17:51:58.368Z,99262.00
2022-11-06T17:54:30.249Z,99255.00
2022-11-06T17:57:02.014Z,99261.00
2022-11-06T17:59:30.102Z,99256.00
2022-11-06T18:01:58.785Z,99254.00
2022-11-06T18:04:31.214Z,99259.00
2022-11-06T18:06:59.369Z,99247.00
2022-11-06T18:09:27.640Z,99246.00
2022-11-06T18:11:56.569Z,99254.00
2022-11-06T18:14:27.359Z,99257.00
2022-11-06T18:16:55.686Z,99242.00
2022-11-06T18:19:26.286Z,99228.00
2022-11-06T18:21:59.005Z,99243.00
2022-11-06T18:24:29.142Z,99229.00
2022-11-06T18:26:57.189Z,99224.00
2022-11-06T18:29:25.521Z,99215.00
2022-11-06T18:31:53.577Z,99214.00
2022-11-06T18:34:21.675Z,99212.00
2022-11-06T18:36:51.073Z,99227.00
2022-11-06T18:39:20.782Z,99215.00
2022-11-06T18:41:49.049Z,99220.00
2022-11-06T18:44:18.018Z,99215.00
2022-11-06T18:46:46.594Z,99219.00
2022-11-06T18:49:14.772Z,99217.00
2022-11-06T18:51:42.963Z,99212.00
2022-11-06T18:54:13.437Z,99216.00
2022-11-06T18:56:43.204Z,99224.00
2022-11-06T18:59:16.754Z,99225.00
2022-11-06T19:01:45.059Z,99223.00
2022-11-06T19:04:13.625Z,99222.00
2022-11-06T19:06:42.308Z,99217.00
2022-11-06T19:09:11.222Z,99216.00
2022-11-06T19:11:39.719Z,99190.00
2022-11-06T19:14:09.191Z,99223.00
2022-11-06T19:16:37.742Z,99221.00
2022-11-06T19:19:07.515Z,99233.00
2022-11-06T19:21:36.269Z,99239.00
2022-11-06T19:24:06.491Z,99229.00
2022-11-06T19:26:36.079Z,99223.00
2022-11-06T19:29:07.472Z,99231.00
2022-11-06T19:31:39.274Z,99232.00
2022-11-06T19:34:09.661Z,99235.00
2022-11-06T19:36:37.979Z,99240.00
2022-11-06T19:39:07.391Z,99231.00
2022-11-06T19:41:35.593Z,99235.00
2022-11-06T19:44:03.625Z,99234.00
2022-11-06T19:46:35.886Z,99232.00
2022-11-06T19:49:07.161Z,99229.00
2022-11-06T19:51:37.487Z,99229.00
2022-11-06T19:54:07.543Z,99232.00
2022-11-06T19:56:35.822Z,99224.00
2022-11-06T19:59:04.432Z,99223.00
2022-11-06T20:01:34.437Z,99219.00
2022-11-06T20:04:02.651Z,99236.00
2022-11-06T20:06:32.134Z,99231.00
2022-11-06T20:09:00.399Z,99226.00
2022-11-06T20:11:28.462Z,99214.00
2022-11-06T20:13:56.464Z,99218.00
2022-11-06T20:16:24.598Z,99221.00
2022-11-06T20:18:54.178Z,99225.00
2022-11-06T20:21:23.083Z,99222.00
2022-11-06T20:23:52.558Z,99222.00
2022-11-06T20:26:20.881Z,99221.00
2022-11-06T20:28:50.186Z,99215.00
2022-11-06T20:31:20.230Z,99221.00
2022-11-06T20:33:49.422Z,99217.00
2022-11-06T20:36:22.948Z,99215.00
2022-11-06T20:38:54.913Z,99186.00
2022-11-06T20:41:24.176Z,99209.00
2022-11-06T20:43:53.247Z,99196.00
2022-11-06T20:46:23.028Z,99205.00
2022-11-06T20:48:51.792Z,99212.00
2022-11-06T20:51:22.843Z,99214.00
2022-11-06T20:53:52.814Z,99203.00
2022-11-06T20:56:25.141Z,99196.00
2022-11-06T20:58:55.138Z,99200.00
2022-11-06T21:01:26.946Z,99197.00
2022-11-06T21:03:57.473Z,99189.00
2022-11-06T21:06:27.350Z,99195.00
2022-11-06T21:08:57.524Z,99198.00
2022-11-06T21:11:28.583Z,99192.00
2022-11-06T21:13:57.006Z,99192.00
2022-11-06T21:16:28.689Z,99211.00
2022-11-06T21:18:57.085Z,99182.00
2022-11-06T21:21:30.157Z,99171.00
2022-11-06T21:24:01.976Z,99161.00
2022-11-06T21:26:32.519Z,99150.00
2022-11-06T21:29:02.042Z,99158.00
2022-11-06T21:31:31.802Z,99148.00
2022-11-06T21:34:03.124Z,99144.00
2022-11-06T21:36:34.718Z,99137.00
2022-11-06T21:39:08.330Z,99154.00
2022-11-06T21:41:37.322Z,99129.00
2022-11-06T21:44:07.133Z,99119.00
2022-11-06T21:46:38.107Z,99122.00
2022-11-06T21:49:08.023Z,99107.00
2022-11-06T21:51:36.593Z,99108.00
2022-11-06T21:54:23.418Z,99080.00
2022-11-06T21:56:53.393Z,99074.00
2022-11-06T21:59:27.281Z,99090.00
2022-11-06T22:01:55.565Z,99088.00
2022-11-06T22:04:24.076Z,99095.00
2022-11-06T22:06:53.217Z,99086.00
2022-11-06T22:09:25.674Z,99097.00
2022-11-06T22:11:54.278Z,99092.00
2022-11-06T22:14:22.402Z,99073.00
2022-11-06T22:16:50.465Z,99095.00
2022-11-06T22:19:18.568Z,99081.00
2022-11-06T22:21:46.817Z,99090.00
2022-11-06T22:24:15.829Z,99081.00
2022-11-06T22:26:45.211Z,99043.00
2022-11-06T22:29:16.397Z,99072.00
2022-11-06T22:31:44.505Z,99089.00
2022-11-06T22:34:14.039Z,99076.00
2022-11-06T22:36:42.377Z,99090.00
2022-11-06T22:39:12.544Z,99092.00
2022-11-06T22:41:41.435Z,99102.00
2022-11-06T22:44:12.511Z,99101.00
2022-11-06T22:46:40.978Z,99074.00
2022-11-06T22:49:09.248Z,99103.00
2022-11-06T22:51:37.676Z,99066.00
2022-11-06T22:54:06.263Z,99105.00
2022-11-06T22:56:34.660Z,99118.00
2022-11-06T22:59:07.678Z,99122.00
2022-11-06T23:01:42.419Z,99121.00
2022-11-06T23:04:15.656Z,99126.00
2022-11-06T23:06:45.236Z,99128.00
2022-11-06T23:09:13.576Z,99138.00
2022-11-06T23:11:41.741Z,99140.00
2022-11-06T23:14:09.813Z,99146.00
2022-11-06T23:17:01.446Z,99146.00
2022-11-06T23:19:32.603Z,99159.00
2022-11-06T23:22:33.277Z,99147.00
2022-11-06T23:25:01.295Z,99139.00
2022-11-06T23:27:29.289Z,99134.00
2022-11-06T23:30:00.606Z,99128.00
2022-11-06T23:32:31.621Z,99129.00
2022-11-06T23:35:03.188Z,99130.00
2022-11-06T23:37:32.530Z,99120.00
2022-11-06T23:40:00.569Z,99101.00
2022-11-06T23:42:28.836Z,99106.00
2022-11-06T23:45:14.349Z,99121.00
2022-11-06T23:47:43.765Z,99118.00
2022-11-06T23:50:11.920Z,99113.00
2022-11-06T23:52:39.908Z,99126.00
2022-11-06T23:55:09.519Z,99125.00
2022-11-06T23:57:37.769Z,99126.00
